Time;durP1;ratioP1;P1;durP2;ratioP2;P2;SDS_P1;SDS_P2;PMS_P1;PMS_P2;Temp;Humidity;BMP_temperature;BMP_pressure;BME280_temperature;BME280_humidity;BME280_pressure;Samples;Min_cycle;Max_cycle;Signal;HPM_P1;HPM_P2
2021/05/16 00:01:14;;;;;;;;;;;;;;;19.59;68.02;100127.66;5051385;28;1496;-49
2021/05/16 00:03:40;;;;;;;;;;;;;;;19.58;68.73;100129.50;5045347;28;1903;-49
2021/05/16 00:06:07;;;;;;;;;;;;;;;19.58;68.77;100139.41;5049577;28;1581;-49
2021/05/16 00:08:34;;;;;;;;;;;;;;;19.58;68.26;100132.19;5042738;28;1906;-48
2021/05/16 00:11:01;;;;;;;;;;;;;;;19.58;68.30;100129.50;5051801;28;1414;-49
2021/05/16 00:13:28;;;;;;;;;;;;;;;19.58;68.25;100134.03;5054040;28;1643;-49
2021/05/16 00:15:54;;;;;;;;;;;;;;;19.58;68.66;100118.78;5046401;28;1707;-49
2021/05/16 00:18:22;;;;;;;;;;;;;;;19.60;68.10;100121.31;5048710;28;1477;-49
2021/05/16 00:20:50;;;;;;;;;;;;;;;19.58;68.05;100118.78;5054822;28;1805;-49
2021/05/16 00:23:18;;;;;;;;;;;;;;;19.59;68.24;100125.81;5055999;28;1035;-50
2021/05/16 00:25:44;;;;;;;;;;;;;;;19.59;68.27;100122.28;5047330;28;1885;-49
2021/05/16 00:28:12;;;;;;;;;;;;;;;19.59;68.16;100115.09;5048693;28;1906;-49
2021/05/16 00:30:39;;;;;;;;;;;;;;;19.60;68.11;100122.16;5051370;28;2082;-49
2021/05/16 00:33:05;;;;;;;;;;;;;;;19.58;68.19;100118.78;5030254;28;1629;-49
2021/05/16 00:35:33;;;;;;;;;;;;;;;19.61;67.99;100114.94;5039633;28;1839;-49
2021/05/16 00:38:00;;;;;;;;;;;;;;;19.58;67.89;100115.25;5045094;28;1079;-49
2021/05/16 00:40:28;;;;;;;;;;;;;;;19.60;67.97;100107.91;5041982;28;1465;-49
2021/05/16 00:42:58;;;;;;;;;;;;;;;19.58;68.28;100134.88;5052678;28;1648;-49
2021/05/16 00:45:26;;;;;;;;;;;;;;;19.56;68.27;100110.03;5047914;28;1625;-49
2021/05/16 00:50:39;;;;;;;;;;;;;;;19.60;68.01;100129.38;5038661;28;2500;-49
2021/05/16 00:53:05;;;;;;;;;;;;;;;19.57;68.46;100130.50;5035005;28;1677;-49
2021/05/16 00:55:32;;;;;;;;;;;;;;;19.58;68.09;100123.31;5049705;28;1701;-49
2021/05/16 00:57:59;;;;;;;;;;;;;;;19.56;68.19;100119.94;5049858;28;1562;-49
2021/05/16 01:00:30;;;;;;;;;;;;;;;19.55;67.99;100111.03;5043884;28;1938;-49
2021/05/16 01:02:59;;;;;;;;;;;;;;;19.57;68.33;100113.56;5048236;28;1402;-49
2021/05/16 01:05:26;;;;;;;;;;;;;;;19.55;68.72;100118.25;5043999;28;1324;-49
2021/05/16 01:07:53;;;;;;;;;;;;;;;19.56;68.00;100123.47;5036146;28;1910;-49
2021/05/16 01:10:20;;;;;;;;;;;;;;;19.56;68.26;100109.22;5042820;28;1628;-48
2021/05/16 01:12:49;;;;;;;;;;;;;;;19.53;68.39;100099.63;5051078;28;1366;-49
2021/05/16 01:15:27;;;;;;;;;;;;;;;19.56;68.12;100098.50;5051275;28;1422;-50
2021/05/16 01:17:59;;;;;;;;;;;;;;;19.55;68.33;100102.16;5039144;28;1780;-49
2021/05/16 01:20:28;;;;;;;;;;;;;;;19.52;68.24;100086.34;5038104;28;1713;-49
2021/05/16 01:23:00;;;;;;;;;;;;;;;19.55;68.35;100110.19;5036141;28;1079;-49
2021/05/16 01:25:28;;;;;;;;;;;;;;;19.56;68.12;100106.53;5044581;28;1801;-49
2021/05/16 01:27:55;;;;;;;;;;;;;;;19.56;68.18;100109.22;5052340;28;1942;-49
2021/05/16 01:30:23;;;;;;;;;;;;;;;19.57;68.33;100105.53;5049952;28;1501;-49
2021/05/16 01:32:50;;;;;;;;;;;;;;;19.53;68.16;100104.16;5050423;28;1459;-49
2021/05/16 01:35:17;;;;;;;;;;;;;;;19.58;68.18;100104.53;5042764;28;1831;-49
2021/05/16 01:37:43;;;;;;;;;;;;;;;19.55;67.91;100100.31;5051466;28;1160;-48
2021/05/16 01:40:14;;;;;;;;;;;;;;;19.57;67.89;100113.56;5050126;28;1752;-49
2021/05/16 01:42:47;;;;;;;;;;;;;;;19.57;67.97;100113.56;5040869;28;996;-49
2021/05/16 01:45:15;;;;;;;;;;;;;;;19.56;68.76;100119.94;5041098;28;2069;-49
2021/05/16 01:47:45;;;;;;;;;;;;;;;19.55;68.23;100112.88;5039203;28;1886;-49
2021/05/16 01:50:14;;;;;;;;;;;;;;;19.55;68.48;100102.97;5045749;28;1582;-49
2021/05/16 01:52:40;;;;;;;;;;;;;;;19.55;68.29;100102.16;5036477;28;1160;-49
2021/05/16 01:55:07;;;;;;;;;;;;;;;19.54;68.28;100100.47;5046016;28;1722;-49
2021/05/16 01:57:39;;;;;;;;;;;;;;;19.55;68.06;100108.34;5052236;28;1692;-49
2021/05/16 02:02:52;;;;;;;;;;;;;;;19.47;66.81;100095.72;4282915;26;2039;-77
2021/05/16 02:05:18;;;;;;;;;;;;;;;19.45;67.71;100100.38;5019473;28;1648;-80
2021/05/16 02:07:44;;;;;;;;;;;;;;;19.47;67.85;100124.38;5025330;28;1906;-80
2021/05/16 02:10:11;;;;;;;;;;;;;;;19.46;67.85;100098.56;5023246;28;1430;-80
2021/05/16 02:12:38;;;;;;;;;;;;;;;19.46;68.20;100112.81;5029304;28;1768;-77
2021/05/16 02:15:05;;;;;;;;;;;;;;;19.44;67.95;100108.63;5019504;28;1422;-78
2021/05/16 02:17:31;;;;;;;;;;;;;;;19.47;68.21;100122.53;5026243;28;1287;-77
2021/05/16 02:19:57;;;;;;;;;;;;;;;19.44;68.26;100101.41;5023061;28;1038;-80
2021/05/16 02:22:23;;;;;;;;;;;;;;;19.44;68.12;100116.66;5031300;28;1753;-78
2021/05/16 02:24:49;;;;;;;;;;;;;;;19.43;68.02;100118.47;5023924;28;1383;-77
2021/05/16 02:27:17;;;;;;;;;;;;;;;19.42;68.13;100113.28;5024649;28;1586;-77
2021/05/16 02:29:45;;;;;;;;;;;;;;;19.42;68.61;100103.41;5026347;28;1903;-78
2021/05/16 02:32:11;;;;;;;;;;;;;;;19.41;68.85;100114.28;5031793;28;1417;-79
2021/05/16 02:34:37;;;;;;;;;;;;;;;19.42;68.41;100118.66;5026526;28;1387;-77
2021/05/16 02:37:03;;;;;;;;;;;;;;;19.43;68.51;100123.84;5026289;28;1039;-79
2021/05/16 02:39:42;;;;;;;;;;;;;;;19.40;68.99;100120.66;5019887;28;1529;-78
2021/05/16 02:42:09;;;;;;;;;;;;;;;19.39;68.46;100119.78;5024686;28;1010;-77
2021/05/16 02:44:35;;;;;;;;;;;;;;;19.41;68.08;100114.28;5028727;28;1666;-77
2021/05/16 02:47:02;;;;;;;;;;;;;;;19.40;69.04;100123.31;5027288;28;1486;-78
2021/05/16 02:49:29;;;;;;;;;;;;;;;19.42;68.56;100129.38;5019697;28;1980;-77
2021/05/16 02:51:55;;;;;;;;;;;;;;;19.38;68.73;100128.84;5025694;28;1582;-79
2021/05/16 02:54:24;;;;;;;;;;;;;;;19.38;68.22;100134.19;5044187;23;3801;-50
2021/05/16 02:56:51;;;;;;;;;;;;;;;19.36;68.67;100122.78;5031232;28;1781;-49
2021/05/16 02:59:26;;;;;;;;;;;;;;;19.37;68.79;100137.03;5011423;28;1757;-49
2021/05/16 03:01:52;;;;;;;;;;;;;;;19.35;68.14;100126.44;5026810;28;1788;-49
2021/05/16 03:04:23;;;;;;;;;;;;;;;19.37;68.74;100127.13;5031273;28;1593;-49
2021/05/16 03:06:50;;;;;;;;;;;;;;;19.36;68.83;100124.59;5031313;28;1636;-49
2021/05/16 03:09:16;;;;;;;;;;;;;;;19.35;68.52;100129.13;5031442;28;1906;-49
2021/05/16 03:11:43;;;;;;;;;;;;;;;19.36;68.66;100127.28;5027765;28;1832;-49
2021/05/16 03:14:13;;;;;;;;;;;;;;;19.39;68.23;100130.50;5031337;28;1619;-49
2021/05/16 03:16:43;;;;;;;;;;;;;;;19.35;68.46;100137.16;5031405;28;1568;-49
2021/05/16 03:19:09;;;;;;;;;;;;;;;19.38;68.32;100149.44;5033284;28;1558;-51
2021/05/16 03:21:40;;;;;;;;;;;;;;;19.39;68.24;100161.84;5034785;28;2171;-49
2021/05/16 03:24:07;;;;;;;;;;;;;;;19.36;68.95;100146.91;5035010;28;1791;-49
2021/05/16 03:26:37;;;;;;;;;;;;;;;19.37;68.29;100156.63;5035761;28;1066;-49
2021/05/16 03:29:04;;;;;;;;;;;;;;;19.35;68.02;100153.25;5032586;28;1977;-51
2021/05/16 03:31:32;;;;;;;;;;;;;;;19.37;68.34;100153.94;5033428;28;1792;-49
2021/05/16 03:33:59;;;;;;;;;;;;;;;19.39;68.12;100162.69;5034774;28;1565;-49
2021/05/16 03:36:28;;;;;;;;;;;;;;;19.36;68.59;100151.41;5034632;28;1676;-49
2021/05/16 03:38:59;;;;;;;;;;;;;;;19.35;68.05;100155.94;5035249;28;1150;-49
2021/05/16 03:41:26;;;;;;;;;;;;;;;19.38;68.37;100150.28;5034839;28;1080;-49
2021/05/16 03:43:56;;;;;;;;;;;;;;;19.42;68.42;100157.03;5034476;28;1591;-49
2021/05/16 03:46:22;;;;;;;;;;;;;;;19.42;67.87;100167.75;5032534;28;1425;-49
2021/05/16 03:48:57;;;;;;;;;;;;;;;19.42;68.36;100157.03;5034253;28;1902;-49
2021/05/16 03:51:47;;;;;;;;;;;;;;;19.39;68.33;100146.59;5034339;28;1493;-49
2021/05/16 03:54:21;;;;;;;;;;;;;;;19.39;68.80;100151.94;5016288;28;1365;-49
2021/05/16 03:56:51;;;;;;;;;;;;;;;19.37;68.90;100143.22;5034200;28;1698;-49
2021/05/16 03:59:18;;;;;;;;;;;;;;;19.37;68.74;100155.78;5033749;28;1347;-49
2021/05/16 04:01:45;;;;;;;;;;;;;;;19.36;69.06;100146.91;5035127;28;1527;-49
2021/05/16 04:04:21;;;;;;;;;;;;;;;19.34;68.98;100143.53;5032884;28;1957;-49
2021/05/16 04:06:54;;;;;;;;;;;;;;;19.37;68.70;100148.59;5032497;28;1760;-49
2021/05/16 04:09:36;;;;;;;;;;;;;;;19.34;68.80;100142.69;5033373;28;2230;-49
2021/05/16 04:12:06;;;;;;;;;;;;;;;19.36;68.24;100146.03;5030038;28;1784;-49
2021/05/16 04:14:36;;;;;;;;;;;;;;;19.38;68.75;100152.13;5034385;28;1878;-49
2021/05/16 04:17:10;;;;;;;;;;;;;;;19.36;68.63;100146.91;5033281;28;1541;-50
2021/05/16 04:19:37;;;;;;;;;;;;;;;19.40;68.35;100142.09;5034208;28;1718;-49
2021/05/16 04:24:48;;;;;;;;;;;;;;;19.51;67.44;100146.38;5026272;28;2394;-49
2021/05/16 04:27:16;;;;;;;;;;;;;;;19.56;67.94;100157.50;5033270;28;1646;-49
2021/05/16 04:29:43;;;;;;;;;;;;;;;19.53;69.39;100152.41;5032708;28;1910;-49
2021/05/16 04:32:17;;;;;;;;;;;;;;;19.70;68.26;100143.53;5026842;28;1568;-49
2021/05/16 04:34:43;;;;;;;;;;;;;;;19.65;68.47;100153.88;5023154;28;1363;-51
2021/05/16 04:37:10;;;;;;;;;;;;;;;19.67;68.58;100154.56;5027865;28;1345;-49
2021/05/16 04:39:38;;;;;;;;;;;;;;;19.93;66.91;100157.28;5032586;28;1754;-49
2021/05/16 04:42:08;;;;;;;;;;;;;;;20.08;67.35;100156.75;5028900;28;1274;-49
2021/05/16 04:44:38;;;;;;;;;;;;;;;20.22;66.29;100157.00;5029635;28;1725;-49
2021/05/16 04:47:06;;;;;;;;;;;;;;;20.26;66.86;100154.84;5029629;28;1491;-49
2021/05/16 04:49:33;;;;;;;;;;;;;;;20.24;66.93;100149.63;5025405;28;1959;-49
2021/05/16 04:52:09;;;;;;;;;;;;;;;20.25;66.61;100166.56;5030714;28;1464;-49
2021/05/16 04:54:35;;;;;;;;;;;;;;;20.22;67.08;100150.81;5031589;28;1659;-49
2021/05/16 04:57:02;;;;;;;;;;;;;;;20.11;67.12;100156.41;5031861;28;1781;-49
2021/05/16 04:59:32;;;;;;;;;;;;;;;20.19;67.20;100153.78;5032830;28;1540;-49
2021/05/16 05:02:00;;;;;;;;;;;;;;;20.12;67.76;100158.13;5030079;28;1551;-49
2021/05/16 05:04:27;;;;;;;;;;;;;;;20.13;67.97;100155.25;5029706;28;1542;-49
2021/05/16 05:07:02;;;;;;;;;;;;;;;20.11;68.08;100151.88;5032295;28;1616;-49
2021/05/16 05:09:28;;;;;;;;;;;;;;;20.17;67.28;100147.72;5032476;28;1967;-49
2021/05/16 05:11:54;;;;;;;;;;;;;;;20.17;68.40;100169.22;5031232;28;2026;-48
2021/05/16 05:14:20;;;;;;;;;;;;;;;20.16;68.42;100146.91;5027476;28;1523;-50
2021/05/16 05:16:47;;;;;;;;;;;;;;;20.17;68.63;100155.78;5031906;28;1055;-48
2021/05/16 05:19:13;;;;;;;;;;;;;;;20.15;68.39;100160.47;5031108;28;1983;-49
2021/05/16 05:21:39;;;;;;;;;;;;;;;20.08;68.18;100154.91;5031139;28;2003;-49
2021/05/16 05:24:06;;;;;;;;;;;;;;;20.10;67.97;100160.13;5031973;28;1680;-49
2021/05/16 05:26:33;;;;;;;;;;;;;;;20.10;68.17;100171.69;5032207;28;1441;-49
2021/05/16 05:28:59;;;;;;;;;;;;;;;20.17;67.68;100151.25;5031388;28;2286;-49
2021/05/16 05:31:26;;;;;;;;;;;;;;;20.10;68.92;100144.84;5031467;28;1758;-50
2021/05/16 05:34:05;;;;;;;;;;;;;;;20.13;68.23;100154.41;5031358;28;1661;-49
2021/05/16 05:36:32;;;;;;;;;;;;;;;20.10;68.47;100163.63;5034539;28;1722;-49
2021/05/16 05:39:07;;;;;;;;;;;;;;;20.18;68.03;100163.69;5044145;28;1550;-50
2021/05/16 05:41:35;;;;;;;;;;;;;;;20.14;68.36;100156.94;5031796;28;1217;-49
2021/05/16 05:44:01;;;;;;;;;;;;;;;20.15;68.75;100168.53;5031229;28;1617;-51
2021/05/16 05:46:28;;;;;;;;;;;;;;;20.08;69.11;100157.59;5038768;28;1577;-49
2021/05/16 05:48:55;;;;;;;;;;;;;;;20.12;69.09;100169.69;5031311;28;1906;-49
2021/05/16 05:54:01;;;;;;;;;;;;;;;20.14;68.13;100159.63;5028997;28;2473;-50
2021/05/16 05:56:28;;;;;;;;;;;;;;;20.13;68.62;100165.16;5043940;28;1297;-49
2021/05/16 05:59:02;;;;;;;;;;;;;;;20.15;69.13;100174.72;5031583;28;1758;-49
2021/05/16 06:01:28;;;;;;;;;;;;;;;20.15;68.91;100168.53;5031327;28;1763;-49
2021/05/16 06:03:57;;;;;;;;;;;;;;;20.15;68.89;100164.00;5031250;28;1583;-49
2021/05/16 06:06:26;;;;;;;;;;;;;;;20.18;68.59;100169.06;5030529;28;1725;-49
2021/05/16 06:08:53;;;;;;;;;;;;;;;20.17;68.54;100172.72;5032154;28;1976;-52
2021/05/16 06:11:20;;;;;;;;;;;;;;;20.10;69.80;100165.50;5031765;28;1901;-49
2021/05/16 06:13:48;;;;;;;;;;;;;;;20.09;68.49;100166.47;5031465;28;1795;-49
2021/05/16 06:16:14;;;;;;;;;;;;;;;20.07;68.94;100169.31;5031006;28;1863;-49
2021/05/16 06:18:40;;;;;;;;;;;;;;;20.04;68.31;100150.84;5024254;28;1822;-49
2021/05/16 06:21:11;;;;;;;;;;;;;;;20.05;68.94;100158.75;5032220;28;1597;-49
2021/05/16 06:23:45;;;;;;;;;;;;;;;20.06;68.89;100156.91;5031838;28;1642;-49
2021/05/16 06:26:14;;;;;;;;;;;;;;;20.09;69.02;100163.78;5031350;28;1655;-49
2021/05/16 06:28:42;;;;;;;;;;;;;;;20.22;68.45;100150.81;5030485;28;1983;-49
2021/05/16 06:31:08;;;;;;;;;;;;;;;20.16;69.08;100176.44;5024589;28;1734;-49
2021/05/16 06:33:35;;;;;;;;;;;;;;;20.16;68.85;100180.97;5030729;28;1390;-49
2021/05/16 06:36:10;;;;;;;;;;;;;;;20.15;67.94;100179.25;5028327;28;1608;-49
2021/05/16 06:38:41;;;;;;;;;;;;;;;20.14;67.89;100170.38;5027445;28;1951;-50
2021/05/16 06:41:11;;;;;;;;;;;;;;;20.20;68.33;100172.44;5030348;28;1536;-49
2021/05/16 06:43:38;;;;;;;;;;;;;;;20.19;67.92;100160.03;5025545;28;1461;-50
2021/05/16 06:46:04;;;;;;;;;;;;;;;20.13;68.84;100181.25;5026868;28;1599;-49
2021/05/16 06:48:37;;;;;;;;;;;;;;;20.19;67.86;100176.13;5030815;28;1910;-50
2021/05/16 06:51:09;;;;;;;;;;;;;;;20.18;67.53;100169.06;5029071;28;1373;-50
2021/05/16 06:53:35;;;;;;;;;;;;;;;20.12;67.79;100175.06;5030932;28;1488;-52
2021/05/16 06:56:08;;;;;;;;;;;;;;;20.21;68.28;100179.50;5032759;28;1430;-50
2021/05/16 06:58:35;;;;;;;;;;;;;;;20.24;68.10;100187.22;5023820;28;1854;-48
2021/05/16 07:01:02;;;;;;;;;;;;;;;20.24;68.42;100178.31;5030513;28;1661;-49
2021/05/16 07:03:28;;;;;;;;;;;;;;;20.27;68.23;100180.69;5033575;28;1865;-48
2021/05/16 07:05:55;;;;;;;;;;;;;;;20.18;69.09;100182.47;5028560;28;2971;-48
2021/05/16 07:08:21;;;;;;;;;;;;;;;20.14;68.92;100178.44;5029484;28;1906;-49
2021/05/16 07:10:50;;;;;;;;;;;;;;;20.19;69.23;100164.53;5025324;28;1986;-48
2021/05/16 07:13:18;;;;;;;;;;;;;;;20.26;68.96;100171.78;5029079;28;1710;-47
2021/05/16 07:15:52;;;;;;;;;;;;;;;20.25;69.06;100175.50;5034979;28;1804;-49
2021/05/16 07:18:18;;;;;;;;;;;;;;;20.27;69.42;100188.75;5026944;28;1663;-47
2021/05/16 07:20:47;;;;;;;;;;;;;;;20.57;68.05;100162.38;5034403;28;1514;-46
2021/05/16 07:23:14;;;;;;;;;;;;;;;20.36;68.86;100176.22;5035826;28;1418;-46
2021/05/16 07:28:26;;;;;;;;;;;;;;;20.23;69.87;100187.38;5030917;28;2519;-46
2021/05/16 07:30:52;;;;;;;;;;;;;;;20.17;69.16;100196.88;5030268;28;1796;-46
2021/05/16 07:33:18;;;;;;;;;;;;;;;20.13;69.89;100178.56;5034375;28;1664;-45
2021/05/16 07:35:44;;;;;;;;;;;;;;;20.17;69.75;100182.63;5033413;28;1975;-46
2021/05/16 07:38:10;;;;;;;;;;;;;;;20.13;68.88;100179.41;5034781;28;1705;-46
2021/05/16 07:40:37;;;;;;;;;;;;;;;20.20;69.26;100182.34;5034408;28;1860;-46
2021/05/16 07:43:05;;;;;;;;;;;;;;;20.18;69.19;100174.44;5035076;28;1379;-46
2021/05/16 07:45:43;;;;;;;;;;;;;;;20.29;68.54;100191.28;5034797;28;1877;-47
2021/05/16 07:48:09;;;;;;;;;;;;;;;20.22;69.39;100181.16;5031891;28;1752;-46
2021/05/16 07:50:38;;;;;;;;;;;;;;;20.23;68.74;100190.06;5024120;28;1902;-48
2021/05/16 07:55:46;;;;;;;;;;;;;;;20.22;67.53;100180.34;5033800;28;2293;-46
2021/05/16 07:58:16;;;;;;;;;;;;;;;20.19;68.08;100186.88;5034174;28;1566;-47
2021/05/16 08:00:47;;;;;;;;;;;;;;;20.37;67.20;100196.69;5033928;28;1765;-46
2021/05/16 08:03:15;;;;;;;;;;;;;;;20.45;65.58;100202.09;5033771;28;1659;-48
2021/05/16 08:05:41;;;;;;;;;;;;;;;20.33;66.58;100185.41;5032825;28;1741;-46
2021/05/16 08:08:07;;;;;;;;;;;;;;;20.26;67.02;100193.28;5034829;28;1673;-46
2021/05/16 08:10:34;;;;;;;;;;;;;;;20.27;64.54;100189.59;5033864;28;2072;-47
2021/05/16 08:13:04;;;;;;;;;;;;;;;20.21;67.34;100190.22;5034281;28;1852;-47
2021/05/16 08:15:32;;;;;;;;;;;;;;;20.29;65.75;100186.72;5024286;28;1679;-49
2021/05/16 08:18:04;;;;;;;;;;;;;;;20.30;66.31;100195.66;5029053;28;1709;-46
2021/05/16 08:20:31;;;;;;;;;;;;;;;20.25;67.19;100199.66;5026031;28;1844;-47
2021/05/16 08:22:58;;;;;;;;;;;;;;;20.24;67.26;100200.63;5034704;28;1048;-46
2021/05/16 08:25:24;;;;;;;;;;;;;;;20.36;67.21;100186.97;5033590;28;1536;-47
2021/05/16 08:27:51;;;;;;;;;;;;;;;20.46;66.12;100195.75;5033469;28;1521;-47
2021/05/16 08:30:18;;;;;;;;;;;;;;;20.36;67.37;100192.34;5033945;28;2056;-47
2021/05/16 08:32:48;;;;;;;;;;;;;;;20.29;67.26;100180.53;5031291;28;1776;-48
2021/05/16 08:35:17;;;;;;;;;;;;;;;20.31;66.71;100191.94;5033538;28;1811;-47
2021/05/16 08:37:45;;;;;;;;;;;;;;;20.37;66.01;100194.00;5034414;28;1082;-47
2021/05/16 08:40:18;;;;;;;;;;;;;;;20.34;66.07;100199.72;5033296;28;2090;-47
2021/05/16 08:42:45;;;;;;;;;;;;;;;20.24;66.82;100189.06;5031937;28;1349;-47
2021/05/16 08:45:12;;;;;;;;;;;;;;;20.25;66.40;100194.28;5030706;28;1635;-46
2021/05/16 08:47:40;;;;;;;;;;;;;;;20.28;65.73;100177.00;5032161;28;1571;-46
2021/05/16 08:50:11;;;;;;;;;;;;;;;20.35;66.65;100186.13;5033088;28;1981;-47
2021/05/16 08:52:40;;;;;;;;;;;;;;;20.38;66.56;100184.97;5028487;28;1838;-47
2021/05/16 08:55:10;;;;;;;;;;;;;;;20.39;66.47;100194.69;5030473;28;1404;-46
2021/05/16 08:57:36;;;;;;;;;;;;;;;20.40;66.79;100189.16;5030586;28;1653;-47
2021/05/16 09:00:06;;;;;;;;;;;;;;;20.36;66.99;100190.47;5027043;28;1618;-47
2021/05/16 09:02:33;;;;;;;;;;;;;;;20.29;67.04;100196.63;5029626;28;1448;-47
2021/05/16 09:05:02;;;;;;;;;;;;;;;20.25;66.27;100190.72;5030587;28;1568;-47
2021/05/16 09:07:29;;;;;;;;;;;;;;;20.25;66.36;100186.22;5031616;28;1253;-47
2021/05/16 09:10:02;;;;;;;;;;;;;;;20.30;66.32;100204.53;5032459;28;1973;-47
2021/05/16 09:12:30;;;;;;;;;;;;;;;20.26;67.78;100181.69;5020547;28;1414;-47
2021/05/16 09:14:57;;;;;;;;;;;;;;;20.27;67.61;100178.88;5030607;28;1627;-47
2021/05/16 09:17:25;;;;;;;;;;;;;;;20.29;67.54;100167.94;5032717;28;1481;-47
2021/05/16 09:19:56;;;;;;;;;;;;;;;20.27;67.00;100172.63;5030989;28;1829;-46
2021/05/16 09:22:36;;;;;;;;;;;;;;;20.31;67.29;100184.72;5034125;28;1112;-46
2021/05/16 09:25:07;;;;;;;;;;;;;;;20.36;66.43;100176.22;5027050;28;1605;-46
2021/05/16 09:27:35;;;;;;;;;;;;;;;20.40;67.00;100177.59;5032918;28;1388;-47
2021/05/16 09:30:01;;;;;;;;;;;;;;;20.33;65.99;100177.34;5031795;28;1969;-46
2021/05/16 09:32:27;;;;;;;;;;;;;;;20.27;66.60;100162.75;5032736;28;1716;-47
2021/05/16 09:34:53;;;;;;;;;;;;;;;20.27;66.37;100172.63;5027691;28;1584;-47
2021/05/16 09:37:20;;;;;;;;;;;;;;;20.24;67.15;100163.06;5030953;28;1704;-46
2021/05/16 09:39:46;;;;;;;;;;;;;;;20.25;67.04;100159.38;5033084;28;1450;-47
2021/05/16 09:42:14;;;;;;;;;;;;;;;20.24;67.15;100141.56;5033733;28;1370;-47
2021/05/16 09:44:45;;;;;;;;;;;;;;;20.30;67.17;100156.22;5032460;28;1568;-46
2021/05/16 09:47:17;;;;;;;;;;;;;;;20.44;65.65;100157.47;5031683;28;1770;-47
2021/05/16 09:49:50;;;;;;;;;;;;;;;20.34;66.02;100141.47;5033003;28;1983;-48
2021/05/16 09:52:18;;;;;;;;;;;;;;;20.35;66.74;100136.94;5032737;28;1841;-47
2021/05/16 09:54:51;;;;;;;;;;;;;;;20.32;66.21;100137.25;5032976;28;1247;-47
2021/05/16 09:57:21;;;;;;;;;;;;;;;20.31;66.48;100149.81;5033487;28;1508;-46
2021/05/16 09:59:48;;;;;;;;;;;;;;;20.24;67.63;100130.00;5033048;28;1740;-47
2021/05/16 10:02:15;;;;;;;;;;;;;;;20.21;67.27;100120.44;5032435;28;2091;-47
2021/05/16 10:04:41;;;;;;;;;;;;;;;20.31;66.70;100108.72;5033172;28;1800;-47
2021/05/16 10:07:08;;;;;;;;;;;;;;;20.25;66.62;100110.19;5031053;28;1339;-47
2021/05/16 10:09:36;;;;;;;;;;;;;;;20.25;66.71;100094.09;5032322;28;1981;-47
2021/05/16 10:12:06;;;;;;;;;;;;;;;20.26;65.59;100107.34;5023917;28;1502;-47
2021/05/16 10:14:37;;;;;;;;;;;;;;;20.26;66.59;100099.31;5029898;28;1048;-47
2021/05/16 10:17:17;;;;;;;;;;;;;;;20.33;65.40;100107.53;5033064;28;1803;-47
2021/05/16 10:19:44;;;;;;;;;;;;;;;20.52;66.00;100079.59;5032885;28;1496;-47
2021/05/16 10:22:15;;;;;;;;;;;;;;;20.49;65.35;100087.16;5032428;28;1694;-46
2021/05/16 10:24:42;;;;;;;;;;;;;;;20.51;65.89;100080.59;5030381;28;1266;-47
2021/05/16 10:27:17;;;;;;;;;;;;;;;20.51;64.88;100088.66;5027193;28;1556;-47
2021/05/16 10:29:50;;;;;;;;;;;;;;;20.49;65.51;100073.72;5032332;28;1910;-45
2021/05/16 10:32:36;;;;;;;;;;;;;;;20.52;65.79;100073.41;5028393;28;1295;-47
2021/05/16 10:35:04;;;;;;;;;;;;;;;20.51;65.51;100083.28;5029762;28;1458;-46
2021/05/16 10:37:50;;;;;;;;;;;;;;;20.52;65.09;100079.59;5033549;28;1329;-48
2021/05/16 10:40:29;;;;;;;;;;;;;;;20.52;65.15;100082.28;5032251;28;1474;-47
2021/05/16 10:42:56;;;;;;;;;;;;;;;20.53;65.44;100075.94;5033725;28;1223;-46
2021/05/16 10:45:37;;;;;;;;;;;;;;;20.51;66.35;100077.06;5032358;28;1204;-45
2021/05/16 10:48:08;;;;;;;;;;;;;;;20.53;66.36;100075.06;5031220;28;1565;-45
2021/05/16 10:50:41;;;;;;;;;;;;;;;20.42;66.06;100069.00;5032777;28;1988;-44
2021/05/16 10:53:10;;;;;;;;;;;;;;;20.50;65.49;100080.78;5029670;28;1753;-44
2021/05/16 10:55:40;;;;;;;;;;;;;;;20.50;66.02;100064.66;5027734;28;1685;-44
2021/05/16 10:58:10;;;;;;;;;;;;;;;20.53;65.23;100070.56;5025810;28;1629;-44
2021/05/16 11:00:42;;;;;;;;;;;;;;;20.63;65.12;100076.66;5032000;28;1652;-45
2021/05/16 11:03:12;;;;;;;;;;;;;;;20.55;65.66;100063.19;5032573;28;1637;-45
2021/05/16 11:05:56;;;;;;;;;;;;;;;20.53;66.21;100051.75;5032170;28;1290;-45
2021/05/16 11:08:43;;;;;;;;;;;;;;;20.63;65.17;100055.19;5025616;28;1949;-44
2021/05/16 11:11:24;;;;;;;;;;;;;;;20.62;65.41;100058.84;5025745;28;1769;-45
2021/05/16 11:13:53;;;;;;;;;;;;;;;20.68;65.20;100056.53;5031203;28;1841;-45
2021/05/16 11:16:23;;;;;;;;;;;;;;;20.64;66.29;100067.59;5028489;28;1705;-45
2021/05/16 11:18:49;;;;;;;;;;;;;;;20.66;66.14;100064.75;5031462;28;1697;-44
2021/05/16 11:21:15;;;;;;;;;;;;;;;20.62;65.48;100058.84;5032890;28;1225;-45
2021/05/16 11:23:49;;;;;;;;;;;;;;;20.62;66.37;100058.03;5032762;28;1223;-45
2021/05/16 11:26:23;;;;;;;;;;;;;;;20.57;66.99;100053.13;5027348;28;1827;-45
2021/05/16 11:29:09;;;;;;;;;;;;;;;20.55;67.20;100047.06;5031329;28;1940;-47
2021/05/16 11:31:42;;;;;;;;;;;;;;;20.57;66.75;100050.44;5031117;28;1388;-47
2021/05/16 11:34:11;;;;;;;;;;;;;;;20.57;67.56;100023.56;5028469;28;1637;-47
2021/05/16 11:36:39;;;;;;;;;;;;;;;20.65;66.96;100038.88;5030843;28;1496;-47
2021/05/16 11:39:09;;;;;;;;;;;;;;;20.66;66.66;100041.41;5031968;28;1590;-47
2021/05/16 11:41:36;;;;;;;;;;;;;;;20.61;66.66;100049.13;5034296;28;1359;-47
2021/05/16 11:44:04;;;;;;;;;;;;;;;20.54;68.13;100036.47;5030528;28;1439;-47
2021/05/16 11:46:41;;;;;;;;;;;;;;;20.51;68.69;100039.47;5034501;28;1486;-47
2021/05/16 11:49:11;;;;;;;;;;;;;;;20.47;68.40;100033.59;5031547;28;1902;-47
2021/05/16 11:51:42;;;;;;;;;;;;;;;20.49;67.43;100031.56;5035710;28;1423;-47
2021/05/16 11:56:50;;;;;;;;;;;;;;;20.47;68.12;100017.47;5035005;28;2441;-47
2021/05/16 11:59:24;;;;;;;;;;;;;;;20.42;68.10;100015.28;5033713;28;1457;-48
2021/05/16 12:01:52;;;;;;;;;;;;;;;20.51;68.36;100018.81;5026290;28;1632;-46
2021/05/16 12:04:20;;;;;;;;;;;;;;;20.53;67.87;100003.41;5035178;28;1811;-46
2021/05/16 12:06:50;;;;;;;;;;;;;;;20.43;67.52;100010.75;5035043;28;1903;-47
2021/05/16 12:09:26;;;;;;;;;;;;;;;20.50;68.48;100006.41;5035342;28;1980;-47
2021/05/16 12:11:52;;;;;;;;;;;;;;;20.53;68.67;100000.72;5026695;28;1674;-46
2021/05/16 12:14:26;;;;;;;;;;;;;;;20.45;68.83;100004.22;5035091;28;1628;-48
2021/05/16 12:17:00;;;;;;;;;;;;;;;20.37;70.20;100006.03;5030721;28;1270;-47
2021/05/16 12:19:30;;;;;;;;;;;;;;;20.32;69.67;100014.59;5031872;28;1430;-46
2021/05/16 12:22:00;;;;;;;;;;;;;;;20.21;71.59;100002.31;5020139;28;1867;-47
2021/05/16 12:24:28;;;;;;;;;;;;;;;20.19;71.21;100011.50;5034027;28;1621;-47
2021/05/16 12:26:55;;;;;;;;;;;;;;;20.16;70.77;100007.31;5031102;28;1617;-47
2021/05/16 12:29:23;;;;;;;;;;;;;;;20.16;69.68;100012.69;5034780;28;1910;-47
2021/05/16 12:31:52;;;;;;;;;;;;;;;20.14;69.96;100011.16;5034203;28;1083;-47
2021/05/16 12:34:34;;;;;;;;;;;;;;;20.14;70.03;100000.44;5034649;28;1580;-47
2021/05/16 12:37:15;;;;;;;;;;;;;;;20.12;69.83;99997.91;5034882;28;1554;-47
2021/05/16 12:39:46;;;;;;;;;;;;;;;20.12;70.10;99995.22;5034878;28;1623;-46
2021/05/16 12:42:25;;;;;;;;;;;;;;;20.12;70.03;99992.53;5033918;28;1203;-46
2021/05/16 12:44:53;;;;;;;;;;;;;;;20.13;69.99;99996.03;5034300;28;1631;-47
2021/05/16 12:47:25;;;;;;;;;;;;;;;20.13;69.82;100009.47;5034609;28;1786;-47
2021/05/16 12:50:01;;;;;;;;;;;;;;;20.08;69.30;99983.13;5034422;28;1947;-46
2021/05/16 12:52:28;;;;;;;;;;;;;;;20.09;69.20;99990.16;5033903;28;1605;-47
2021/05/16 12:54:54;;;;;;;;;;;;;;;20.10;69.41;99997.22;5034233;28;1857;-47
2021/05/16 12:57:30;;;;;;;;;;;;;;;20.08;69.76;99985.81;5031300;28;1621;-47
2021/05/16 13:00:00;;;;;;;;;;;;;;;20.08;69.40;99996.53;5034336;28;1625;-47
2021/05/16 13:02:31;;;;;;;;;;;;;;;20.09;69.36;99992.00;5034402;28;1609;-47
2021/05/16 13:04:59;;;;;;;;;;;;;;;20.11;69.60;99984.63;5033717;28;1417;-47
2021/05/16 13:07:39;;;;;;;;;;;;;;;20.12;69.41;99983.66;5034917;28;1089;-46
2021/05/16 13:10:22;;;;;;;;;;;;;;;20.10;69.43;99982.97;5033966;28;1971;-47
2021/05/16 13:12:51;;;;;;;;;;;;;;;20.05;69.10;99980.75;5031776;28;1238;-47
2021/05/16 13:15:34;;;;;;;;;;;;;;;20.08;68.51;99985.81;5034007;28;1684;-47
2021/05/16 13:18:21;;;;;;;;;;;;;;;20.03;68.91;99975.56;5027100;28;1701;-47